createdAt,value
2023-02-27T00:00:28.641Z,-0.70
2023-02-27T00:03:13.516Z,-0.75
2023-02-27T00:05:58.532Z,-0.71
2023-02-27T00:08:43.782Z,-0.75
2023-02-27T00:11:29.049Z,-0.75
2023-02-27T00:14:14.057Z,-0.77
2023-02-27T00:16:59.002Z,-0.78
2023-02-27T00:19:44.288Z,-0.78
2023-02-27T00:22:28.942Z,-0.82
2023-02-27T00:25:14.561Z,-0.81
2023-02-27T00:27:59.843Z,-0.86
2023-02-27T00:30:45.089Z,-0.86
2023-02-27T00:33:30.306Z,-0.83
2023-02-27T00:36:15.108Z,-0.87
2023-02-27T00:39:00.483Z,-0.85
2023-02-27T00:41:45.151Z,-0.88
2023-02-27T00:44:30.506Z,-0.87
2023-02-27T00:47:15.058Z,-0.92
2023-02-27T00:50:00.557Z,-0.95
2023-02-27T00:52:45.190Z,-0.95
2023-02-27T00:55:30.208Z,-0.95
2023-02-27T00:58:16.614Z,-0.93
2023-02-27T01:01:01.745Z,-0.92
2023-02-27T01:03:46.780Z,-0.95
2023-02-27T01:06:31.629Z,-0.94
2023-02-27T01:09:16.314Z,-0.96
2023-02-27T01:12:01.529Z,-0.96
2023-02-27T01:14:47.411Z,-1.01
2023-02-27T01:17:35.804Z,-1.00
2023-02-27T01:20:22.408Z,-0.99
2023-02-27T01:23:07.097Z,-1.00
2023-02-27T01:25:51.920Z,-0.97
2023-02-27T01:28:36.534Z,-0.98
2023-02-27T01:31:23.286Z,-1.00
2023-02-27T01:34:08.193Z,-1.00
2023-02-27T01:36:53.057Z,-1.06
2023-02-27T01:39:37.876Z,-1.08
2023-02-27T01:42:27.586Z,-1.07
2023-02-27T01:45:12.557Z,-1.09
2023-02-27T01:48:06.028Z,-1.11
2023-02-27T01:50:56.223Z,-1.13
2023-02-27T01:53:43.845Z,-1.17
2023-02-27T01:56:31.443Z,-1.23
2023-02-27T01:59:17.719Z,-1.25
2023-02-27T02:02:07.734Z,-1.26
2023-02-27T02:04:54.599Z,-1.28
2023-02-27T02:07:41.388Z,-1.25
2023-02-27T02:10:27.069Z,-1.23
2023-02-27T02:13:12.205Z,-1.23
2023-02-27T02:16:06.343Z,-1.25
2023-02-27T02:18:52.233Z,-1.22
2023-02-27T02:21:37.180Z,-1.23
2023-02-27T02:24:22.106Z,-1.23
2023-02-27T02:27:25.221Z,-1.24
2023-02-27T02:30:35.028Z,-1.23
2023-02-27T02:33:29.294Z,-1.23
2023-02-27T02:36:20.718Z,-1.22
2023-02-27T02:39:14.560Z,-1.21
2023-02-27T02:42:24.278Z,-1.18
2023-02-27T02:45:26.534Z,-1.20
2023-02-27T02:48:26.037Z,-1.22
2023-02-27T02:51:10.568Z,-1.21
2023-02-27T02:54:04.329Z,-1.25
2023-02-27T02:56:56.265Z,-1.28
2023-02-27T03:03:56.527Z,-1.27
2023-02-27T03:06:52.465Z,-1.26
2023-02-27T03:09:47.677Z,-1.25
2023-02-27T03:12:34.313Z,-1.24
2023-02-27T03:15:27.858Z,-1.21
2023-02-27T03:18:32.264Z,-1.18
2023-02-27T03:21:31.553Z,-1.19
2023-02-27T03:24:25.181Z,-1.14
2023-02-27T03:27:11.210Z,-1.16
2023-02-27T03:30:15.304Z,-1.12
2023-02-27T03:33:22.518Z,-1.10
2023-02-27T03:36:36.764Z,-1.13
2023-02-27T03:39:28.292Z,-1.12
2023-02-27T03:42:31.891Z,-1.13
2023-02-27T03:45:40.737Z,-1.11
2023-02-27T03:48:25.858Z,-1.10
2023-02-27T03:51:11.744Z,-1.10
2023-02-27T03:54:17.391Z,-1.12
2023-02-27T03:57:05.198Z,-1.11
2023-02-27T03:59:51.059Z,-1.13
2023-02-27T04:02:36.323Z,-1.16
2023-02-27T04:05:21.758Z,-1.13
2023-02-27T04:08:34.204Z,-1.16
2023-02-27T04:11:40.262Z,-1.15
2023-02-27T04:14:30.897Z,-1.15
2023-02-27T04:17:26.618Z,-1.15
2023-02-27T04:20:34.792Z,-1.18
2023-02-27T04:23:34.378Z,-1.18
2023-02-27T04:26:39.040Z,-1.15
2023-02-27T04:29:45.433Z,-1.16
2023-02-27T04:32:48.057Z,-1.17
2023-02-27T04:35:43.330Z,-1.14
2023-02-27T04:38:50.967Z,-1.14
2023-02-27T04:41:46.491Z,-1.09
2023-02-27T04:44:34.557Z,-1.06
2023-02-27T04:47:21.095Z,-1.08
2023-02-27T04:50:18.974Z,-1.08
2023-02-27T04:53:08.388Z,-1.11
2023-02-27T04:55:59.719Z,-1.13
2023-02-27T04:58:53.011Z,-1.14
2023-02-27T05:01:42.773Z,-1.13
2023-02-27T05:04:32.909Z,-1.15
2023-02-27T05:07:21.784Z,-1.19
2023-02-27T05:10:31.825Z,-1.20
2023-02-27T05:13:31.623Z,-1.19
2023-02-27T05:16:29.234Z,-1.24
2023-02-27T05:19:14.576Z,-1.23
2023-02-27T05:22:20.278Z,-1.17
2023-02-27T05:25:14.010Z,-1.14
2023-02-27T05:28:02.352Z,-1.14
2023-02-27T05:31:15.241Z,-1.10
2023-02-27T05:34:21.957Z,-1.07
2023-02-27T05:37:19.934Z,-1.06
2023-02-27T05:40:09.505Z,-1.12
2023-02-27T05:43:03.971Z,-1.11
2023-02-27T05:45:51.936Z,-1.11
2023-02-27T05:48:41.748Z,-1.06
2023-02-27T05:51:31.410Z,-1.01
2023-02-27T05:54:29.318Z,-0.98
2023-02-27T05:57:22.262Z,-0.96
2023-02-27T06:00:14.799Z,-0.95
2023-02-27T06:03:00.394Z,-1.00
2023-02-27T06:05:46.645Z,-0.97
2023-02-27T06:08:33.364Z,-0.98
2023-02-27T06:11:28.930Z,-0.97
2023-02-27T06:14:14.302Z,-0.94
2023-02-27T06:16:59.145Z,-0.80
2023-02-27T06:19:46.799Z,-0.89
2023-02-27T06:26:35.870Z,-0.93
2023-02-27T06:29:21.502Z,-0.87
2023-02-27T06:32:15.506Z,-0.82
2023-02-27T06:35:00.270Z,-0.72
2023-02-27T06:37:52.538Z,-0.74
2023-02-27T06:40:37.782Z,-0.72
2023-02-27T06:43:22.673Z,-0.74
2023-02-27T06:46:07.799Z,-0.75
2023-02-27T06:48:53.089Z,-0.76
2023-02-27T06:51:38.760Z,-0.71
2023-02-27T06:54:23.853Z,-0.67
2023-02-27T06:57:08.902Z,-0.62
2023-02-27T06:59:53.744Z,-0.58
2023-02-27T07:02:38.882Z,-0.49
2023-02-27T07:05:24.149Z,-0.42
2023-02-27T07:08:22.868Z,-0.37
2023-02-27T07:11:09.588Z,-0.31
2023-02-27T07:14:13.214Z,-0.29
2023-02-27T07:17:03.929Z,-0.28
2023-02-27T07:19:48.992Z,-0.14
2023-02-27T07:22:34.165Z,-0.08
2023-02-27T07:25:22.334Z,0.05
2023-02-27T07:28:16.015Z,0.20
2023-02-27T07:31:09.172Z,0.26
2023-02-27T07:33:58.422Z,0.47
2023-02-27T07:36:54.006Z,0.57
2023-02-27T07:39:57.773Z,0.97
2023-02-27T07:43:49.510Z,1.20
2023-02-27T07:46:39.079Z,1.15
2023-02-27T07:49:48.115Z,0.95
2023-02-27T07:52:36.427Z,0.98
2023-02-27T07:55:22.578Z,0.93
2023-02-27T07:58:08.445Z,0.81
2023-02-27T08:01:30.758Z,0.77
2023-02-27T08:05:30.688Z,0.63
2023-02-27T08:09:05.375Z,0.44
2023-02-27T08:12:05.488Z,0.45
2023-02-27T08:15:00.871Z,0.42
2023-02-27T08:17:48.613Z,0.51
2023-02-27T08:20:38.581Z,0.48
2023-02-27T08:23:39.353Z,0.43
2023-02-27T08:26:42.900Z,0.41
2023-02-27T08:29:30.643Z,0.49
2023-02-27T08:36:07.384Z,0.66
2023-02-27T08:38:52.725Z,1.00
2023-02-27T08:41:37.679Z,1.34
2023-02-27T08:44:25.087Z,1.70
2023-02-27T08:47:09.898Z,2.17
2023-02-27T08:49:58.723Z,2.20
2023-02-27T08:53:11.016Z,2.25
2023-02-27T08:56:02.253Z,2.17
2023-02-27T08:58:53.363Z,2.45
2023-02-27T09:09:50.034Z,1.97
2023-02-27T09:12:37.016Z,1.68
2023-02-27T09:15:22.984Z,1.64
2023-02-27T09:18:29.024Z,1.84
2023-02-27T09:21:14.432Z,1.69
2023-02-27T09:24:10.129Z,1.52
2023-02-27T09:27:13.202Z,1.47
2023-02-27T09:29:58.788Z,1.58
2023-02-27T09:32:43.739Z,1.56
2023-02-27T09:35:30.187Z,1.82
2023-02-27T09:38:17.994Z,1.86
2023-02-27T09:45:13.969Z,1.88
2023-02-27T09:51:29.839Z,1.65
2023-02-27T09:54:17.249Z,1.47
2023-02-27T09:57:04.931Z,1.57
2023-02-27T10:00:44.279Z,1.57
2023-02-27T10:04:07.987Z,1.56
2023-02-27T10:07:35.646Z,1.48
2023-02-27T10:10:41.716Z,1.56
2023-02-27T10:13:50.810Z,1.49
2023-02-27T10:16:41.701Z,1.45
2023-02-27T10:19:31.466Z,1.12
2023-02-27T10:22:28.788Z,1.19
2023-02-27T10:25:49.262Z,1.27
2023-02-27T10:28:34.340Z,1.28
2023-02-27T10:31:29.260Z,1.26
2023-02-27T10:34:48.701Z,1.03
2023-02-27T10:39:32.972Z,1.05
2023-02-27T10:41:49.033Z,1.12
2023-02-27T10:44:40.135Z,0.88
2023-02-27T10:47:44.306Z,0.81
2023-02-27T10:50:46.932Z,0.89
2023-02-27T10:54:15.819Z,0.69
2023-02-27T10:57:43.450Z,0.89
2023-02-27T11:01:34.614Z,1.00
2023-02-27T11:04:58.308Z,0.60
2023-02-27T11:08:11.516Z,0.71
2023-02-27T11:11:10.795Z,0.88
2023-02-27T11:15:18.509Z,0.75
2023-02-27T11:18:28.710Z,0.94
2023-02-27T11:30:30.319Z,1.01
2023-02-27T11:33:21.924Z,0.94
2023-02-27T11:36:11.154Z,0.97
2023-02-27T11:38:56.766Z,1.08
2023-02-27T11:42:01.114Z,1.12
2023-02-27T11:49:29.801Z,0.93
2023-02-27T11:52:53.008Z,1.15
2023-02-27T11:55:45.652Z,1.07
2023-02-27T11:58:42.013Z,0.71
2023-02-27T12:01:42.607Z,0.87
2023-02-27T12:04:46.835Z,0.96
2023-02-27T12:08:27.407Z,0.87
2023-02-27T12:11:28.854Z,0.81
2023-02-27T12:14:19.679Z,0.73
2023-02-27T12:17:39.570Z,0.41
2023-02-27T12:20:48.867Z,0.43
2023-02-27T12:23:41.498Z,0.51
2023-02-27T12:26:36.841Z,0.51
2023-02-27T12:29:22.745Z,0.55
2023-02-27T12:32:20.134Z,0.56
2023-02-27T12:35:34.528Z,0.69
2023-02-27T12:38:21.893Z,0.70
2023-02-27T12:41:28.008Z,0.69
2023-02-27T12:44:49.007Z,0.54
2023-02-27T12:47:46.519Z,0.56
2023-02-27T12:51:00.727Z,0.58
2023-02-27T12:53:54.806Z,0.59
2023-02-27T12:56:45.206Z,0.50
2023-02-27T12:59:51.203Z,0.47
2023-02-27T13:02:45.432Z,0.44
2023-02-27T13:05:34.805Z,0.36
2023-02-27T13:08:47.421Z,0.24
2023-02-27T13:11:51.387Z,0.24
2023-02-27T13:15:00.900Z,0.25
2023-02-27T13:17:49.284Z,0.17
2023-02-27T13:20:50.124Z,0.15
2023-02-27T13:23:58.019Z,0.17
2023-02-27T13:26:52.108Z,0.18
2023-02-27T13:30:05.574Z,0.14
2023-02-27T13:33:04.843Z,0.21
2023-02-27T13:35:57.579Z,0.14
2023-02-27T13:38:48.645Z,0.13
2023-02-27T13:41:37.593Z,0.20
2023-02-27T13:44:22.309Z,0.06
2023-02-27T13:47:29.106Z,-0.02
2023-02-27T13:50:16.801Z,-0.11
2023-02-27T13:53:10.410Z,-0.09
2023-02-27T13:56:16.948Z,-0.02
2023-02-27T13:59:13.391Z,0.03
2023-02-27T14:02:24.417Z,0.06
2023-02-27T14:05:38.366Z,0.11
2023-02-27T14:08:32.883Z,-0.03
2023-02-27T14:11:30.113Z,-0.05
2023-02-27T14:14:54.037Z,-0.13
2023-02-27T14:17:44.265Z,-0.23
2023-02-27T14:20:30.380Z,-0.30
2023-02-27T14:23:15.541Z,-0.38
2023-02-27T14:26:20.788Z,-0.39
2023-02-27T14:29:05.941Z,-0.36
2023-02-27T14:31:53.813Z,-0.34
2023-02-27T14:34:40.301Z,-0.37
2023-02-27T14:37:26.802Z,-0.37
2023-02-27T14:40:30.396Z,-0.42
2023-02-27T14:43:15.964Z,-0.42
2023-02-27T14:46:21.100Z,-0.48
2023-02-27T14:49:24.364Z,-0.51
2023-02-27T14:52:24.237Z,-0.53
2023-02-27T14:55:29.118Z,-0.51
2023-02-27T14:58:18.802Z,-0.56
2023-02-27T15:01:09.307Z,-0.64
2023-02-27T15:03:57.630Z,-0.72
2023-02-27T15:06:45.984Z,-0.76
2023-02-27T15:09:37.498Z,-0.78
2023-02-27T15:12:24.591Z,-0.78
2023-02-27T15:15:16.332Z,-0.82
2023-02-27T15:18:01.764Z,-0.85
2023-02-27T15:20:56.227Z,-0.90
2023-02-27T15:23:40.904Z,-0.90
2023-02-27T15:26:32.335Z,-0.94
2023-02-27T15:29:22.904Z,-0.94
2023-02-27T15:32:16.210Z,-1.00
2023-02-27T15:35:05.040Z,-1.03
2023-02-27T15:37:58.048Z,-1.02
2023-02-27T15:40:43.184Z,-1.06
2023-02-27T15:43:29.752Z,-1.08
2023-02-27T15:46:14.513Z,-1.13
2023-02-27T15:48:59.643Z,-1.17
2023-02-27T15:52:12.178Z,-1.16
2023-02-27T15:55:06.411Z,-1.19
2023-02-27T15:58:02.301Z,-1.21
2023-02-27T16:00:48.541Z,-1.23
2023-02-27T16:03:48.501Z,-1.26
2023-02-27T16:06:38.003Z,-1.29
2023-02-27T16:09:29.699Z,-1.34
2023-02-27T16:12:37.253Z,-1.37
2023-02-27T16:15:31.006Z,-1.38
2023-02-27T16:18:15.865Z,-1.39
2023-02-27T16:21:11.872Z,-1.45
2023-02-27T16:24:29.546Z,-1.44
2023-02-27T16:27:32.236Z,-1.49
2023-02-27T16:30:17.678Z,-1.53
2023-02-27T16:33:02.744Z,-1.53
2023-02-27T16:35:47.481Z,-1.51
2023-02-27T16:38:32.751Z,-1.53
2023-02-27T16:41:23.867Z,-1.55
2023-02-27T16:44:09.487Z,-1.61
2023-02-27T16:46:56.262Z,-1.56
2023-02-27T16:49:43.835Z,-1.60
2023-02-27T16:52:30.999Z,-1.61
2023-02-27T16:55:16.224Z,-1.61
2023-02-27T16:58:01.304Z,-1.61
2023-02-27T17:00:46.162Z,-1.60
2023-02-27T17:03:32.644Z,-1.63
2023-02-27T17:06:17.794Z,-1.65
2023-02-27T17:09:04.122Z,-1.65
2023-02-27T17:11:49.607Z,-1.64
2023-02-27T17:14:34.283Z,-1.66
2023-02-27T17:17:19.113Z,-1.65
2023-02-27T17:20:07.867Z,-1.66
2023-02-27T17:22:52.859Z,-1.65
2023-02-27T17:25:40.779Z,-1.64
2023-02-27T17:28:25.259Z,-1.62
2023-02-27T17:31:11.951Z,-1.59
2023-02-27T17:33:56.732Z,-1.64
2023-02-27T17:36:42.205Z,-1.64
2023-02-27T17:39:27.209Z,-1.66
2023-02-27T17:42:17.963Z,-1.64
2023-02-27T17:45:05.113Z,-1.65
2023-02-27T17:47:59.872Z,-1.69
2023-02-27T17:50:45.397Z,-1.77
2023-02-27T17:53:30.344Z,-1.83
2023-02-27T17:56:15.321Z,-1.93
2023-02-27T17:59:00.230Z,-2.00
2023-02-27T18:01:44.694Z,-2.02
2023-02-27T18:04:29.698Z,-2.09
2023-02-27T18:07:14.474Z,-2.14
2023-02-27T18:09:59.809Z,-2.14
2023-02-27T18:12:44.679Z,-2.18
2023-02-27T18:15:29.515Z,-2.22
2023-02-27T18:18:14.659Z,-2.27
2023-02-27T18:21:09.272Z,-2.30
2023-02-27T18:23:54.892Z,-2.35
2023-02-27T18:26:40.300Z,-2.40
2023-02-27T18:29:25.368Z,-2.43
2023-02-27T18:32:10.485Z,-2.46
2023-02-27T18:34:55.544Z,-2.48
2023-02-27T18:37:40.643Z,-2.46
2023-02-27T18:40:26.088Z,-2.52
2023-02-27T18:43:11.366Z,-2.49
2023-02-27T18:45:56.518Z,-2.54
2023-02-27T18:48:44.199Z,-2.53
2023-02-27T18:51:29.485Z,-2.49
2023-02-27T18:54:14.862Z,-2.49
2023-02-27T18:57:00.186Z,-2.50
2023-02-27T18:59:46.927Z,-2.47
2023-02-27T19:02:31.947Z,-2.44
2023-02-27T19:05:17.098Z,-2.44
2023-02-27T19:08:01.779Z,-2.39
2023-02-27T19:10:46.542Z,-2.38
2023-02-27T19:13:31.247Z,-2.38
2023-02-27T19:16:16.503Z,-2.37
2023-02-27T19:19:02.769Z,-2.35
2023-02-27T19:21:47.599Z,-2.33
2023-02-27T19:24:32.465Z,-2.31
2023-02-27T19:27:17.312Z,-2.30
2023-02-27T19:30:02.087Z,-2.25
2023-02-27T19:32:47.166Z,-2.27
2023-02-27T19:35:32.239Z,-2.27
2023-02-27T19:38:17.130Z,-2.28
2023-02-27T19:41:08.057Z,-2.28
2023-02-27T19:43:53.835Z,-2.27
2023-02-27T19:46:41.271Z,-2.27
2023-02-27T19:49:26.937Z,-2.25
2023-02-27T19:52:12.618Z,-2.24
2023-02-27T19:54:57.240Z,-2.22
2023-02-27T19:57:41.981Z,-2.22
2023-02-27T20:00:27.134Z,-2.24
2023-02-27T20:03:11.919Z,-2.22
2023-02-27T20:05:56.752Z,-2.26
2023-02-27T20:08:41.406Z,-2.28
2023-02-27T20:11:32.846Z,-2.26
2023-02-27T20:14:17.701Z,-2.31
2023-02-27T20:17:02.962Z,-2.28
2023-02-27T20:19:47.597Z,-2.30
2023-02-27T20:22:32.752Z,-2.29
2023-02-27T20:25:18.113Z,-2.31
2023-02-27T20:28:03.170Z,-2.32
2023-02-27T20:30:47.997Z,-2.33
2023-02-27T20:33:32.836Z,-2.33
2023-02-27T20:36:17.671Z,-2.40
2023-02-27T20:39:03.671Z,-2.41
2023-02-27T20:41:49.382Z,-2.46
2023-02-27T20:44:34.543Z,-2.50
2023-02-27T20:47:19.299Z,-2.56
2023-02-27T20:50:04.597Z,-2.59
2023-02-27T20:52:53.424Z,-2.64
2023-02-27T20:55:45.340Z,-2.72
2023-02-27T20:58:30.587Z,-2.79
2023-02-27T21:01:16.350Z,-2.85
2023-02-27T21:04:01.125Z,-2.94
2023-02-27T21:06:46.712Z,-3.01
2023-02-27T21:09:31.794Z,-3.12
2023-02-27T21:12:17.076Z,-3.17
2023-02-27T21:15:01.614Z,-3.24
2023-02-27T21:17:46.614Z,-3.30
2023-02-27T21:20:31.371Z,-3.34
2023-02-27T21:23:16.398Z,-3.36
2023-02-27T21:26:04.645Z,-3.46
2023-02-27T21:28:55.700Z,-3.52
2023-02-27T21:31:44.821Z,-3.58
2023-02-27T21:34:29.880Z,-3.65
2023-02-27T21:37:15.132Z,-3.72
2023-02-27T21:40:01.917Z,-3.72
2023-02-27T21:42:47.747Z,-3.77
2023-02-27T21:45:34.745Z,-3.81
2023-02-27T21:48:19.806Z,-3.88
2023-02-27T21:51:06.140Z,-3.94
2023-02-27T21:54:11.386Z,-3.94
2023-02-27T21:56:58.586Z,-3.95
2023-02-27T21:59:43.617Z,-3.93
2023-02-27T22:02:28.061Z,-3.96
2023-02-27T22:05:12.745Z,-3.98
2023-02-27T22:07:57.737Z,-3.98
2023-02-27T22:10:45.200Z,-4.01
2023-02-27T22:13:31.518Z,-4.04
2023-02-27T22:16:16.799Z,-4.04
2023-02-27T22:19:09.350Z,-4.09
2023-02-27T22:21:54.400Z,-4.12
2023-02-27T22:24:39.076Z,-4.08
2023-02-27T22:27:24.409Z,-4.09
2023-02-27T22:30:09.884Z,-4.10
2023-02-27T22:32:55.172Z,-4.09
2023-02-27T22:35:40.220Z,-4.10
2023-02-27T22:38:25.329Z,-4.11
2023-02-27T22:41:13.666Z,-4.09
2023-02-27T22:43:59.773Z,-4.09
2023-02-27T22:46:47.766Z,-4.10
2023-02-27T22:49:32.803Z,-4.10
2023-02-27T22:52:18.482Z,-4.13
2023-02-27T22:55:03.918Z,-4.18
2023-02-27T22:57:51.184Z,-4.22
2023-02-27T23:00:36.587Z,-4.23
2023-02-27T23:03:21.225Z,-4.22
2023-02-27T23:06:08.310Z,-4.22
2023-02-27T23:08:53.320Z,-4.17
2023-02-27T23:11:38.797Z,-4.16
2023-02-27T23:14:23.908Z,-4.12
2023-02-27T23:17:08.820Z,-4.11
2023-02-27T23:19:53.621Z,-4.12
2023-02-27T23:22:38.449Z,-4.09
2023-02-27T23:25:23.560Z,-4.09
2023-02-27T23:28:08.648Z,-4.09
2023-02-27T23:30:53.400Z,-4.12
2023-02-27T23:33:38.446Z,-4.11
2023-02-27T23:36:23.540Z,-4.12
2023-02-27T23:39:08.824Z,-4.14
2023-02-27T23:41:53.375Z,-4.13
2023-02-27T23:44:38.513Z,-4.16
2023-02-27T23:47:41.771Z,-4.15
2023-02-27T23:50:32.897Z,-4.17
2023-02-27T23:53:18.696Z,-4.16
2023-02-27T23:56:12.961Z,-4.11
2023-02-27T23:59:04.225Z,-4.11
